Terminal Aerodrome Forecast
Issued by NWS Glasgow, MT

Home | Current Version | Previous Version | Text Only | Print | Product List | Glossary On
Versions: 1 2 3 4 5 6 7 8 9 10 11 12 13
000
FTUS45 KGGW 291100
TAFGGW
TAF
KGGW 291130Z 2912/3012 30007KT P6SM BKN040
     FM291600 VRB04KT P6SM SCT040
     FM300000 13010KT P6SM SKC=

USA.gov is the U.S. government's official web portal to all federal, state and local government web resources and services.